Time;durP1;ratioP1;P1;durP2;ratioP2;P2;SDS_P1;SDS_P2;PMS_P1;PMS_P2;Temp;Humidity;BMP_temperature;BMP_pressure;BME280_temperature;BME280_humidity;BME280_pressure;Samples;Min_cycle;Max_cycle;Signal;HPM_P1;HPM_P2
2023/01/07 00:02:04;;;;;;;13.90;12.57;;;;;;;5.74;100.00;97587.16;5030571;28;20209;-72
2023/01/07 00:04:31;;;;;;;19.73;17.63;;;;;;;5.77;100.00;97589.50;4996301;28;20223;-72
2023/01/07 00:06:59;;;;;;;19.57;17.80;;;;;;;5.87;100.00;97584.22;5021618;28;20207;-71
2023/01/07 00:09:27;;;;;;;14.43;12.87;;;;;;;5.82;100.00;97585.59;5028730;28;20678;-74
2023/01/07 00:11:54;;;;;;;14.20;12.83;;;;;;;5.85;100.00;97588.78;5034093;28;20202;-71
2023/01/07 00:14:22;;;;;;;13.87;12.63;;;;;;;5.79;100.00;97589.38;5041034;28;20576;-73
2023/01/07 00:16:49;;;;;;;12.40;11.33;;;;;;;5.76;100.00;97582.56;5027329;28;20230;-70
2023/01/07 00:19:20;;;;;;;12.53;11.33;;;;;;;5.79;100.00;97589.38;4999204;28;20247;-71
2023/01/07 00:21:48;;;;;;;12.50;11.40;;;;;;;5.75;100.00;97588.81;5040604;28;20207;-71
2023/01/07 00:24:15;;;;;;;11.90;10.83;;;;;;;5.79;100.00;97577.03;5043767;28;20623;-73
2023/01/07 00:26:45;;;;;;;12.87;11.67;;;;;;;5.98;100.00;97574.47;5043008;28;20413;-72
2023/01/07 00:29:12;;;;;;;12.67;11.37;;;;;;;6.01;100.00;97576.84;5037258;28;20621;-70
2023/01/07 00:31:40;;;;;;;12.60;11.50;;;;;;;6.05;100.00;97570.31;5014914;28;21521;-71
2023/01/07 00:34:08;;;;;;;13.30;11.97;;;;;;;6.00;100.00;97567.25;4985559;28;20207;-71
2023/01/07 00:36:40;;;;;;;11.60;10.50;;;;;;;5.91;100.00;97569.78;5027687;28;20228;-70
2023/01/07 00:39:11;;;;;;;13.13;11.93;;;;;;;5.85;100.00;97559.84;5035600;28;20233;-72
2023/01/07 00:41:39;;;;;;;12.53;11.43;;;;;;;5.82;100.00;97564.56;5040849;28;20207;-71
2023/01/07 00:44:07;;;;;;;12.33;11.20;;;;;;;5.84;100.00;97568.72;5041018;28;20536;-71
2023/01/07 00:46:35;;;;;;;12.30;11.30;;;;;;;5.85;100.00;97566.91;5039059;28;20210;-71
2023/01/07 00:49:03;;;;;;;13.27;12.07;;;;;;;5.81;100.00;97569.00;5025252;28;20717;-71
2023/01/07 00:51:30;;;;;;;12.23;11.13;;;;;;;5.82;100.00;97565.41;4992859;28;20222;-73
2023/01/07 00:53:59;;;;;;;14.13;11.10;;;;;;;5.78;100.00;97558.78;5040010;28;20325;-72
2023/01/07 00:56:27;;;;;;;13.47;12.17;;;;;;;5.83;100.00;97561.81;5038492;28;20200;-74
2023/01/07 00:58:54;;;;;;;12.33;11.33;;;;;;;5.80;100.00;97555.03;5035022;28;20744;-70
2023/01/07 01:01:22;;;;;;;13.03;11.93;;;;;;;5.89;100.00;97555.97;5023387;28;20204;-72
2023/01/07 01:03:49;;;;;;;12.70;11.50;;;;;;;5.89;100.00;97555.16;5024984;28;20237;-71
2023/01/07 01:06:17;;;;;;;12.63;11.50;;;;;;;5.92;100.00;97549.59;4998532;28;20222;-72
2023/01/07 01:08:46;;;;;;;12.27;11.13;;;;;;;6.03;100.00;97559.94;5038770;28;20778;-71
2023/01/07 01:11:16;;;;;;;12.30;11.10;;;;;;;6.07;100.00;97552.59;5038779;28;20572;-71
2023/01/07 01:13:45;;;;;;;11.77;10.57;;;;;;;6.08;100.00;97562.97;5039226;28;20319;-72
2023/01/07 01:16:13;;;;;;;11.27;10.27;;;;;;;6.13;100.00;97559.91;5031681;28;20201;-70
2023/01/07 01:18:41;;;;;;;11.67;10.60;;;;;;;6.18;100.00;97554.19;5038250;28;20544;-71
2023/01/07 01:21:11;;;;;;;11.53;10.63;;;;;;;6.12;100.00;97546.88;4982273;28;20313;-73
2023/01/07 01:23:38;;;;;;;12.60;11.40;;;;;;;6.07;100.00;97542.09;5037749;28;20297;-71
2023/01/07 01:26:09;;;;;;;14.80;13.13;;;;;;;6.09;100.00;97555.91;5043810;28;20738;-72
2023/01/07 01:28:38;;;;;;;14.93;12.97;;;;;;;6.16;100.00;97551.72;5047664;28;20219;-73
2023/01/07 01:31:07;;;;;;;20.67;15.23;;;;;;;6.22;100.00;97551.13;5038680;28;20316;-72
2023/01/07 01:33:34;;;;;;;22.10;14.80;;;;;;;6.27;100.00;97555.97;5045199;28;20569;-72
2023/01/07 01:36:03;;;;;;;26.27;17.90;;;;;;;6.33;100.00;97555.38;4984005;28;21508;-72
2023/01/07 01:38:31;;;;;;;31.83;18.67;;;;;;;6.39;100.00;97551.28;5040799;28;20222;-70
2023/01/07 01:40:59;;;;;;;28.90;18.47;;;;;;;6.44;100.00;97556.13;4984590;28;20469;-72
2023/01/07 01:43:29;;;;;;;32.10;18.30;;;;;;;6.29;100.00;97547.91;5043964;28;20210;-72
2023/01/07 01:46:00;;;;;;;24.87;16.73;;;;;;;6.39;100.00;97553.13;5042029;28;20252;-71
2023/01/07 01:48:28;;;;;;;23.97;16.53;;;;;;;6.39;100.00;97547.84;5046102;28;20219;-70
2023/01/07 01:50:55;;;;;;;21.67;14.03;;;;;;;6.41;100.00;97540.63;5037946;28;20238;-73
2023/01/07 01:53:25;;;;;;;19.20;13.77;;;;;;;6.46;100.00;97544.47;5039829;28;20195;-73
2023/01/07 01:55:55;;;;;;;14.23;11.83;;;;;;;6.42;100.00;97534.38;4997359;28;20660;-71
2023/01/07 01:58:28;;;;;;;13.73;12.13;;;;;;;6.45;100.00;97532.31;5040968;28;20500;-72
2023/01/07 02:00:55;;;;;;;11.40;10.20;;;;;;;6.45;100.00;97531.47;5042007;28;20468;-73
2023/01/07 02:03:25;;;;;;;11.93;10.70;;;;;;;6.48;100.00;97537.25;5043008;28;20710;-72
2023/01/07 02:05:53;;;;;;;13.93;12.10;;;;;;;6.30;100.00;97526.72;5042392;28;20615;-70
2023/01/07 02:08:22;;;;;;;19.90;15.77;;;;;;;6.37;100.00;97527.78;5041451;28;20262;-71
2023/01/07 02:10:54;;;;;;;15.37;13.03;;;;;;;6.19;100.00;97525.13;5035609;28;20204;-72
2023/01/07 02:13:32;;;;;;;12.50;11.20;;;;;;;6.18;100.00;97520.81;4995735;28;20218;-71
2023/01/07 02:16:03;;;;;;;10.53;9.63;;;;;;;6.15;100.00;97526.38;5040434;28;20199;-71
2023/01/07 02:18:44;;;;;;;9.97;9.07;;;;;;;6.08;100.00;97527.97;5041066;28;20378;-72
2023/01/07 02:21:20;;;;;;;11.27;10.30;;;;;;;5.98;100.00;97514.81;5040274;28;20210;-73
2023/01/07 02:24:15;;;;;;;10.17;9.27;;;;;;;6.06;100.00;97514.09;5035827;28;20852;-72
2023/01/07 02:27:01;;;;;;;12.00;10.90;;;;;;;5.85;100.00;97520.41;5021952;28;20608;-72
2023/01/07 02:30:04;;;;;;;11.33;10.33;;;;;;;5.87;100.00;97520.25;4996461;28;20406;-73
2023/01/07 02:32:43;;;;;;;11.30;10.30;;;;;;;5.77;100.00;97517.69;5006729;28;20415;-73
2023/01/07 02:35:20;;;;;;;11.00;9.90;;;;;;;5.81;100.00;97513.78;5042042;28;20233;-71
2023/01/07 02:37:56;;;;;;;11.77;10.70;;;;;;;5.78;100.00;97509.63;5033469;28;20250;-73
2023/01/07 02:40:30;;;;;;;11.20;10.20;;;;;;;5.79;100.00;97508.66;5040241;28;20223;-73
2023/01/07 02:43:04;;;;;;;10.73;9.87;;;;;;;5.75;100.00;97509.13;5002196;28;20728;-73
2023/01/07 02:45:36;;;;;;;11.60;10.50;;;;;;;5.66;100.00;97502.91;5040225;28;20222;-72
2023/01/07 02:48:07;;;;;;;11.33;10.33;;;;;;;5.69;100.00;97505.25;5046996;28;20232;-73
2023/01/07 02:50:35;;;;;;;12.27;11.13;;;;;;;5.61;100.00;97502.53;5042220;28;20203;-73
2023/01/07 02:53:02;;;;;;;12.87;11.67;;;;;;;5.52;100.00;97498.97;5039646;28;20217;-72
2023/01/07 02:55:36;;;;;;;12.43;11.33;;;;;;;5.47;100.00;97495.94;5042193;28;20360;-73
2023/01/07 02:58:34;;;;;;;12.97;11.87;;;;;;;5.47;100.00;97501.19;5047717;28;20222;-72
2023/01/07 03:01:23;;;;;;;13.80;12.40;;;;;;;5.43;100.00;97491.94;5039453;28;20202;-72
2023/01/07 03:04:12;;;;;;;13.23;11.83;;;;;;;5.43;100.00;97495.38;5045466;28;20208;-69
2023/01/07 03:06:51;;;;;;;12.67;11.57;;;;;;;5.42;100.00;97492.91;5038637;28;20333;-71
2023/01/07 03:09:24;;;;;;;11.97;10.87;;;;;;;5.49;100.00;97497.47;5029338;28;21432;-70
2023/01/07 03:11:57;;;;;;;14.43;13.03;;;;;;;5.44;100.00;97489.16;5034204;28;20355;-71
2023/01/07 03:14:30;;;;;;;13.33;11.93;;;;;;;5.48;100.00;97487.88;4998806;28;20262;-71
2023/01/07 03:17:01;;;;;;;13.40;12.10;;;;;;;5.45;100.00;97484.75;5044750;28;20844;-72
2023/01/07 03:19:32;;;;;;;13.67;12.27;;;;;;;5.48;100.00;97480.00;5039249;28;20214;-73
2023/01/07 03:22:02;;;;;;;13.40;12.20;;;;;;;5.46;100.00;97479.31;5042317;28;20587;-71
2023/01/07 03:24:31;;;;;;;13.57;12.17;;;;;;;5.41;100.00;97470.22;5041905;28;20479;-72
2023/01/07 03:27:00;;;;;;;11.90;10.80;;;;;;;5.41;100.00;97457.91;5033605;28;20545;-71
2023/01/07 03:29:30;;;;;;;13.20;12.00;;;;;;;5.45;100.00;97475.03;4994802;28;20883;-72
2023/01/07 03:32:04;;;;;;;13.53;12.23;;;;;;;5.43;100.00;97474.34;5043395;28;20207;-74
2023/01/07 03:34:34;;;;;;;13.63;12.23;;;;;;;5.45;100.00;97475.03;5050103;28;20198;-72
2023/01/07 03:37:04;;;;;;;13.57;12.33;;;;;;;5.27;100.00;97451.31;5042174;28;20222;-72
2023/01/07 03:39:33;;;;;;;14.07;12.60;;;;;;;5.43;100.00;97461.22;5046107;28;20435;-74
2023/01/07 03:44:50;;;;;;;14.40;12.87;;;;;;;5.43;100.00;97457.78;5044857;28;20217;-73
2023/01/07 03:47:18;;;;;;;14.03;12.80;;;;;;;5.40;100.00;97453.63;5001156;28;20590;-72
2023/01/07 03:49:47;;;;;;;14.17;12.90;;;;;;;5.44;100.00;97454.19;4993296;28;20219;-72
2023/01/07 03:52:15;;;;;;;14.20;12.80;;;;;;;5.46;100.00;97460.94;5035087;28;20582;-71
2023/01/07 03:54:42;;;;;;;13.63;12.27;;;;;;;5.44;100.00;97451.56;5040065;28;20212;-70
2023/01/07 03:57:10;;;;;;;13.27;11.97;;;;;;;5.37;100.00;97451.28;5033421;28;20207;-73
2023/01/07 03:59:37;;;;;;;14.30;12.97;;;;;;;5.41;100.00;97455.28;5041804;28;20223;-72
2023/01/07 04:02:05;;;;;;;14.77;13.47;;;;;;;5.44;100.00;97452.38;5042136;28;20470;-71
2023/01/07 04:04:33;;;;;;;13.60;12.37;;;;;;;5.43;100.00;97444.63;5002563;28;20508;-72
2023/01/07 04:07:02;;;;;;;14.40;13.00;;;;;;;5.44;100.00;97438.41;5043239;28;20254;-72
2023/01/07 04:09:30;;;;;;;13.37;12.17;;;;;;;5.40;100.00;97439.69;5047451;28;20227;-73
2023/01/07 04:11:57;;;;;;;13.57;12.37;;;;;;;5.46;100.00;97439.09;5029323;28;20215;-73
2023/01/07 04:14:25;;;;;;;12.93;11.70;;;;;;;5.51;100.00;97442.09;5050730;28;20195;-72
2023/01/07 04:16:52;;;;;;;13.53;11.87;;;;;;;5.49;100.00;97438.78;5042399;28;20202;-72
2023/01/07 04:19:21;;;;;;;13.33;12.03;;;;;;;5.44;100.00;97426.09;5005192;28;20936;-72
2023/01/07 04:21:49;;;;;;;12.53;11.33;;;;;;;5.59;100.00;97426.44;5030812;28;20208;-72
2023/01/07 04:24:17;;;;;;;11.87;10.87;;;;;;;5.54;100.00;97423.41;5037614;28;20278;-73
2023/01/07 04:26:45;;;;;;;13.10;11.80;;;;;;;5.45;100.00;97411.16;5024398;28;20229;-72
2023/01/07 04:29:13;;;;;;;13.93;12.60;;;;;;;5.39;100.00;97415.19;5041327;28;20262;-71
2023/01/07 04:31:40;;;;;;;13.77;12.47;;;;;;;5.36;100.00;97410.22;5039898;28;20207;-73
2023/01/07 04:34:09;;;;;;;13.43;12.20;;;;;;;5.39;100.00;97407.31;4994934;28;20223;-69
2023/01/07 04:36:36;;;;;;;12.90;11.80;;;;;;;5.52;100.00;97416.66;5035667;28;20279;-72
2023/01/07 04:39:04;;;;;;;13.50;12.27;;;;;;;5.50;100.00;97398.41;5046119;28;20256;-73
2023/01/07 04:41:33;;;;;;;15.10;13.70;;;;;;;5.44;100.00;97412.94;5042398;28;20211;-74
2023/01/07 04:44:00;;;;;;;13.47;12.27;;;;;;;5.46;100.00;97407.56;5027640;28;20614;-71
2023/01/07 04:46:28;;;;;;;12.87;11.73;;;;;;;5.41;100.00;97405.34;5036824;28;20392;-73
2023/01/07 04:48:56;;;;;;;13.50;12.20;;;;;;;5.56;100.00;97412.78;5043873;28;20903;-72
2023/01/07 04:51:23;;;;;;;13.17;11.97;;;;;;;5.51;100.00;97400.06;4998798;28;20343;-73
2023/01/07 04:53:51;;;;;;;13.77;12.53;;;;;;;5.44;100.00;97399.81;5038617;28;20429;-72
2023/01/07 04:56:18;;;;;;;13.47;12.27;;;;;;;5.39;100.00;97395.97;5048932;28;20203;-72
2023/01/07 04:58:47;;;;;;;14.17;12.77;;;;;;;5.42;100.00;97401.75;5022687;28;20226;-71
2023/01/07 05:01:15;;;;;;;12.97;11.80;;;;;;;5.42;100.00;97395.69;5042017;28;20215;-72
2023/01/07 05:03:42;;;;;;;14.37;12.97;;;;;;;5.43;100.00;97387.63;5043584;28;20645;-72
2023/01/07 05:06:10;;;;;;;14.80;13.50;;;;;;;5.40;100.00;97385.31;4999832;28;20233;-72
2023/01/07 05:08:38;;;;;;;13.50;12.30;;;;;;;5.39;100.00;97401.22;5035311;28;20222;-74
2023/01/07 05:11:05;;;;;;;14.13;12.83;;;;;;;5.41;100.00;97389.59;5047479;28;20202;-72
2023/01/07 05:13:34;;;;;;;13.03;11.83;;;;;;;5.39;100.00;97386.28;5026378;28;20411;-71
2023/01/07 05:16:03;;;;;;;15.10;13.70;;;;;;;5.45;100.00;97382.25;5041687;28;20221;-72
2023/01/07 05:18:31;;;;;;;15.07;13.57;;;;;;;5.46;100.00;97373.38;5036803;28;20227;-72
2023/01/07 05:20:58;;;;;;;13.80;12.53;;;;;;;5.45;100.00;97384.88;4999484;28;21481;-71
2023/01/07 05:23:26;;;;;;;14.70;13.40;;;;;;;5.46;100.00;97378.66;5038530;28;20211;-73
2023/01/07 05:25:54;;;;;;;14.67;13.27;;;;;;;5.39;100.00;97367.88;5040850;28;20230;-73
2023/01/07 05:28:21;;;;;;;13.87;12.67;;;;;;;5.43;100.00;97363.97;5044610;28;20242;-73
2023/01/07 05:30:49;;;;;;;16.13;14.63;;;;;;;5.43;100.00;97361.34;5021833;28;20204;-71
2023/01/07 05:33:18;;;;;;;14.93;13.53;;;;;;;5.40;100.00;97364.28;5045525;28;20230;-72
2023/01/07 05:35:47;;;;;;;15.23;13.93;;;;;;;5.40;100.00;97359.03;5002434;28;20521;-71
2023/01/07 05:38:15;;;;;;;14.80;13.50;;;;;;;5.38;100.00;97362.78;5038563;28;20357;-70
2023/01/07 05:40:42;;;;;;;14.77;13.30;;;;;;;5.33;100.00;97360.59;5038833;28;20206;-70
2023/01/07 05:43:10;;;;;;;15.43;14.00;;;;;;;5.35;100.00;97359.47;5047894;28;20206;-72
2023/01/07 05:45:38;;;;;;;15.33;14.03;;;;;;;5.31;100.00;97358.13;5022448;28;20207;-72
2023/01/07 05:48:06;;;;;;;13.87;12.37;;;;;;;5.33;100.00;97350.09;5037993;28;20230;-71
2023/01/07 05:50:34;;;;;;;14.03;12.80;;;;;;;5.38;100.00;97353.09;5039494;28;20769;-72
2023/01/07 05:53:02;;;;;;;15.10;13.60;;;;;;;5.31;100.00;97347.63;4996458;28;20227;-72
2023/01/07 05:55:30;;;;;;;14.07;12.70;;;;;;;5.31;100.00;97336.25;5039537;28;20831;-71
2023/01/07 05:57:58;;;;;;;14.93;13.37;;;;;;;5.27;100.00;97345.41;5005920;28;20219;-72
2023/01/07 06:00:25;;;;;;;14.53;13.13;;;;;;;5.31;100.00;97347.63;5044361;28;20581;-72
2023/01/07 06:02:53;;;;;;;15.00;13.60;;;;;;;5.32;100.00;97340.53;5035267;28;20496;-75
2023/01/07 06:05:21;;;;;;;13.83;12.63;;;;;;;5.50;100.00;97345.84;5018736;28;20427;-72
2023/01/07 06:07:50;;;;;;;14.20;12.93;;;;;;;5.43;100.00;97345.59;5042972;28;20222;-72
2023/01/07 06:10:17;;;;;;;14.30;13.03;;;;;;;5.41;100.00;97338.84;5040026;28;20214;-72
2023/01/07 06:12:45;;;;;;;14.03;12.83;;;;;;;5.44;100.00;97331.47;4999454;28;20222;-71
2023/01/07 06:15:12;;;;;;;14.50;13.20;;;;;;;5.44;100.00;97336.72;5035496;28;20202;-72
2023/01/07 06:17:40;;;;;;;15.13;13.73;;;;;;;5.42;100.00;97330.78;5037745;28;20199;-68
2023/01/07 06:20:09;;;;;;;15.13;13.63;;;;;;;5.40;100.00;97340.63;5041562;28;20242;-73
2023/01/07 06:22:36;;;;;;;15.10;13.63;;;;;;;5.42;100.00;97336.06;5046723;28;20219;-73
2023/01/07 06:25:06;;;;;;;14.10;12.83;;;;;;;5.34;100.00;97330.72;5040711;28;22145;-73
2023/01/07 06:27:33;;;;;;;15.27;13.97;;;;;;;5.36;100.00;97331.41;4971998;28;20239;-71
2023/01/07 06:30:03;;;;;;;15.95;14.45;;;;;;;5.46;100.00;97333.97;5045097;28;20557;-73
2023/01/07 06:32:31;;;;;;;14.97;13.57;;;;;;;5.39;100.00;97328.47;5027886;28;20207;-75
2023/01/07 06:34:58;;;;;;;14.97;13.67;;;;;;;5.36;100.00;97332.22;5046256;28;20240;-73
2023/01/07 06:37:26;;;;;;;15.33;13.93;;;;;;;5.49;100.00;97328.41;5049562;28;20762;-75
2023/01/07 06:39:53;;;;;;;14.40;13.03;;;;;;;5.50;100.00;97324.81;5049352;28;20245;-72
2023/01/07 06:42:22;;;;;;;14.63;13.17;;;;;;;5.50;100.00;97322.19;4986793;28;20211;-71
2023/01/07 06:44:50;;;;;;;14.17;12.83;;;;;;;5.46;100.00;97313.75;5044767;28;20218;-72
2023/01/07 06:47:17;;;;;;;14.40;13.10;;;;;;;5.44;100.00;97315.72;5026546;28;20211;-76
2023/01/07 06:49:45;;;;;;;13.93;12.63;;;;;;;5.45;100.00;97316.56;5033669;28;20231;-75
2023/01/07 06:52:13;;;;;;;15.53;12.77;;;;;;;5.43;100.00;97311.44;5040394;28;20659;-75
2023/01/07 06:54:40;;;;;;;15.00;13.70;;;;;;;5.52;100.00;97317.59;5043611;28;20207;-72
2023/01/07 06:57:08;;;;;;;14.50;13.30;;;;;;;5.60;100.00;97311.63;5001290;28;20215;-75
2023/01/07 06:59:37;;;;;;;14.63;13.33;;;;;;;5.45;100.00;97309.47;5036106;28;20733;-73
2023/01/07 07:02:04;;;;;;;14.00;12.73;;;;;;;5.45;100.00;97314.72;5030883;28;20270;-72
2023/01/07 07:04:32;;;;;;;16.10;14.60;;;;;;;5.43;100.00;97314.06;5044410;28;20322;-72
2023/01/07 07:07:00;;;;;;;16.03;14.53;;;;;;;5.39;100.00;97312.69;5045346;28;20203;-71
2023/01/07 07:09:27;;;;;;;14.97;13.57;;;;;;;5.35;100.00;97304.31;5041914;28;20846;-70
2023/01/07 07:11:55;;;;;;;14.37;13.07;;;;;;;5.38;100.00;97304.97;5050560;28;20246;-73
2023/01/07 07:14:22;;;;;;;13.23;12.13;;;;;;;5.47;100.00;97310.16;5010718;28;20511;-73
2023/01/07 07:16:51;;;;;;;16.27;14.80;;;;;;;5.50;100.00;97316.94;5034615;28;20230;-75
2023/01/07 07:19:19;;;;;;;14.13;12.93;;;;;;;5.46;100.00;97295.34;5029880;28;20226;-75
2023/01/07 07:21:47;;;;;;;15.27;13.77;;;;;;;5.56;100.00;97313.69;5043850;28;20231;-74
2023/01/07 07:24:20;;;;;;;14.23;12.80;;;;;;;5.53;100.00;97307.94;5035422;28;20556;-75
2023/01/07 07:26:48;;;;;;;14.23;12.73;;;;;;;5.51;100.00;97305.44;5044234;28;20286;-74
2023/01/07 07:29:15;;;;;;;15.13;13.83;;;;;;;5.50;100.00;97304.63;5006098;28;20678;-75
2023/01/07 07:31:43;;;;;;;17.43;15.83;;;;;;;5.46;100.00;97302.44;5039891;28;20238;-74
2023/01/07 07:34:12;;;;;;;17.20;15.50;;;;;;;5.50;100.00;97298.53;5033101;28;20210;-76
2023/01/07 07:36:40;;;;;;;16.90;15.40;;;;;;;5.47;100.00;97298.84;5033291;28;20211;-77
2023/01/07 07:39:08;;;;;;;16.10;14.70;;;;;;;5.53;100.00;97300.03;5045907;28;20291;-74
2023/01/07 07:41:35;;;;;;;16.70;15.10;;;;;;;5.55;100.00;97295.47;5041140;28;20564;-73
2023/01/07 07:44:03;;;;;;;18.23;16.43;;;;;;;5.58;100.00;97301.22;5043478;28;20212;-74
2023/01/07 07:46:31;;;;;;;17.33;15.73;;;;;;;5.57;100.00;97296.13;5003072;28;20302;-74
2023/01/07 07:48:59;;;;;;;16.60;15.00;;;;;;;5.69;100.00;97302.00;5040613;28;20295;-73
2023/01/07 07:51:28;;;;;;;16.60;14.97;;;;;;;5.71;100.00;97285.09;5019936;28;20486;-74
2023/01/07 07:53:56;;;;;;;14.80;13.50;;;;;;;5.90;100.00;97292.00;5041247;28;20207;-72
2023/01/07 07:56:23;;;;;;;15.50;13.90;;;;;;;5.86;100.00;97289.81;5021815;28;20320;-73
2023/01/07 07:58:51;;;;;;;15.40;14.00;;;;;;;5.87;100.00;97287.03;5042446;28;20220;-73
2023/01/07 08:01:18;;;;;;;15.33;13.93;;;;;;;5.80;100.00;97278.13;4994650;28;20800;-72
2023/01/07 08:03:46;;;;;;;15.77;14.27;;;;;;;5.79;100.00;97284.34;5000614;28;20344;-73
2023/01/07 08:06:14;;;;;;;15.33;13.93;;;;;;;5.77;100.00;97281.84;5040193;28;20199;-75
2023/01/07 08:08:43;;;;;;;15.33;13.03;;;;;;;5.79;100.00;97282.53;5043608;28;20220;-74
2023/01/07 08:11:11;;;;;;;14.77;13.37;;;;;;;5.80;100.00;97278.91;4998015;28;1076623;-74
2023/01/07 08:13:38;;;;;;;16.30;14.83;;;;;;;5.80;100.00;97276.28;5042153;28;20204;-73
2023/01/07 08:16:06;;;;;;;14.00;12.80;;;;;;;5.85;100.00;97272.38;5028064;28;20203;-76
2023/01/07 08:18:34;;;;;;;14.93;13.53;;;;;;;5.98;100.00;97275.47;5038936;28;20223;-72
2023/01/07 08:21:02;;;;;;;14.07;12.77;;;;;;;6.06;100.00;97272.09;5005906;28;20229;-74
2023/01/07 08:23:30;;;;;;;14.53;13.07;;;;;;;6.08;100.00;97267.53;5042613;28;20365;-71
2023/01/07 08:26:01;;;;;;;14.03;12.73;;;;;;;6.05;100.00;97263.38;5046871;28;20202;-76
2023/01/07 08:28:29;;;;;;;13.17;11.90;;;;;;;6.12;100.00;97260.13;5004533;28;20235;-74
2023/01/07 08:30:56;;;;;;;14.93;13.43;;;;;;;6.11;100.00;97253.22;5006840;28;20210;-72
2023/01/07 08:33:24;;;;;;;13.23;11.93;;;;;;;6.01;100.00;97254.16;5027451;28;20199;-72
2023/01/07 08:35:52;;;;;;;14.00;12.70;;;;;;;6.13;100.00;97246.00;4972566;28;21029;-72
2023/01/07 08:38:19;;;;;;;13.07;11.97;;;;;;;6.06;100.00;97245.78;5021176;28;20229;-71
2023/01/07 08:40:47;;;;;;;21.87;19.67;;;;;;;6.06;100.00;97248.41;5032948;28;21026;-73
2023/01/07 08:43:16;;;;;;;13.13;11.90;;;;;;;6.13;100.00;97249.47;5048607;28;20251;-71
2023/01/07 08:45:48;;;;;;;14.13;12.83;;;;;;;6.04;100.00;97245.94;5031134;28;20196;-71
2023/01/07 08:48:16;;;;;;;13.70;12.40;;;;;;;6.12;100.00;97242.56;5043595;28;20856;-73
2023/01/07 08:50:44;;;;;;;13.87;12.57;;;;;;;6.15;100.00;97239.63;4991376;28;20746;-71
2023/01/07 08:53:12;;;;;;;14.50;13.23;;;;;;;6.21;100.00;97236.34;5023264;28;20820;-73
2023/01/07 08:55:39;;;;;;;13.73;12.53;;;;;;;6.16;100.00;97240.41;5042595;28;20207;-74
2023/01/07 08:58:07;;;;;;;13.63;12.53;;;;;;;6.27;100.00;97229.66;5036950;28;20229;-72
2023/01/07 09:00:36;;;;;;;13.67;12.50;;;;;;;6.33;100.00;97223.78;5039159;28;20582;-74
2023/01/07 09:03:03;;;;;;;13.73;12.43;;;;;;;6.21;100.00;97225.84;5011441;28;21440;-72
2023/01/07 09:05:32;;;;;;;13.57;12.37;;;;;;;6.41;100.00;97222.16;5038293;28;20199;-72
2023/01/07 09:08:02;;;;;;;15.13;13.83;;;;;;;6.36;100.00;97225.25;5013144;28;20294;-73
2023/01/07 09:10:30;;;;;;;13.97;12.53;;;;;;;6.33;100.00;97225.56;5013564;28;20210;-72
2023/01/07 09:12:58;;;;;;;16.00;14.50;;;;;;;6.21;100.00;97215.31;5042985;28;20211;-71
2023/01/07 09:15:25;;;;;;;14.70;13.40;;;;;;;6.20;100.00;97211.03;5024200;28;20218;-73
2023/01/07 09:17:54;;;;;;;13.87;12.67;;;;;;;6.24;100.00;97219.41;5002432;28;20557;-74
2023/01/07 09:20:22;;;;;;;13.43;12.30;;;;;;;6.20;100.00;97207.56;5034434;28;20199;-71
2023/01/07 09:22:49;;;;;;;13.70;12.50;;;;;;;6.46;100.00;97214.63;4987339;28;20214;-71
2023/01/07 09:25:17;;;;;;;12.70;11.63;;;;;;;6.59;100.00;97208.91;5027740;28;20583;-74
2023/01/07 09:27:48;;;;;;;15.00;13.70;;;;;;;6.53;100.00;97204.28;5037746;28;20744;-74
2023/01/07 09:30:16;;;;;;;13.20;12.13;;;;;;;6.84;100.00;97209.03;5028480;28;20227;-72
2023/01/07 09:32:44;;;;;;;13.63;12.33;;;;;;;6.81;100.00;97212.78;5021683;28;20206;-74
2023/01/07 09:35:14;;;;;;;13.90;12.70;;;;;;;6.71;100.00;97197.13;5043725;28;20207;-74
2023/01/07 09:37:42;;;;;;;14.00;12.60;;;;;;;6.78;100.00;97202.56;4997236;28;21963;-71
2023/01/07 09:40:15;;;;;;;13.97;12.77;;;;;;;6.71;100.00;97199.75;5021982;28;20247;-71
2023/01/07 09:42:46;;;;;;;13.53;12.40;;;;;;;6.77;100.00;97201.72;5038630;28;20211;-75
2023/01/07 09:45:17;;;;;;;12.87;11.77;;;;;;;6.92;100.00;97199.31;5044866;28;20237;-73
2023/01/07 09:47:46;;;;;;;12.50;11.40;;;;;;;6.91;100.00;97199.50;5033152;28;20213;-72
2023/01/07 09:50:21;;;;;;;14.13;12.87;;;;;;;6.93;100.00;97189.63;5045194;28;20231;-70
2023/01/07 09:52:53;;;;;;;13.30;12.20;;;;;;;7.08;100.00;97189.81;5000898;28;20198;-71
2023/01/07 09:55:24;;;;;;;11.70;10.70;;;;;;;7.05;100.00;97190.16;5044905;28;20210;-72
2023/01/07 09:57:52;;;;;;;11.30;10.30;;;;;;;7.05;100.00;97176.97;5040862;28;20516;-72
2023/01/07 10:00:25;;;;;;;11.13;10.03;;;;;;;6.97;100.00;97176.94;5037571;28;20201;-74
2023/01/07 10:03:15;;;;;;;10.10;9.30;;;;;;;7.00;100.00;97176.59;5039403;28;20485;-73
2023/01/07 10:05:49;;;;;;;10.27;9.40;;;;;;;6.97;100.00;97169.88;5026224;28;20211;-73
2023/01/07 10:08:25;;;;;;;10.50;9.70;;;;;;;7.02;100.00;97164.13;4998416;28;20226;-71
2023/01/07 10:11:03;;;;;;;9.57;8.77;;;;;;;6.97;100.00;97159.34;5026411;28;20237;-71
2023/01/07 10:13:40;;;;;;;9.77;8.97;;;;;;;7.15;100.00;97155.72;4995330;28;20220;-72
2023/01/07 10:16:12;;;;;;;9.47;8.77;;;;;;;7.13;100.00;97149.78;5042094;28;20210;-72
2023/01/07 10:18:47;;;;;;;8.80;8.07;;;;;;;7.14;100.00;97148.81;5032526;28;20308;-73
2023/01/07 10:21:21;;;;;;;8.07;7.47;;;;;;;7.14;100.00;97147.00;5039763;28;20248;-75
2023/01/07 10:23:52;;;;;;;8.47;7.80;;;;;;;7.29;100.00;97146.34;5021863;28;20218;-72
2023/01/07 10:26:34;;;;;;;8.67;8.00;;;;;;;7.36;100.00;97129.72;5041564;28;20207;-72
2023/01/07 10:29:05;;;;;;;8.20;7.60;;;;;;;7.35;100.00;97133.34;4995892;28;20222;-72
2023/01/07 10:31:33;;;;;;;8.10;7.50;;;;;;;7.55;100.00;97129.56;5046600;28;20219;-74
2023/01/07 10:34:00;;;;;;;8.10;7.50;;;;;;;7.74;100.00;97121.28;5040154;28;20199;-72
2023/01/07 10:36:31;;;;;;;8.40;7.70;;;;;;;7.95;100.00;97114.66;5039574;28;20206;-73
2023/01/07 10:39:11;;;;;;;8.40;7.60;;;;;;;7.87;100.00;97110.22;5013911;28;20997;-73
2023/01/07 10:41:47;;;;;;;8.57;7.83;;;;;;;7.99;100.00;97108.03;5016824;28;20196;-71
2023/01/07 10:44:49;;;;;;;7.13;6.53;;;;;;;7.89;100.00;97097.69;5029304;28;20415;-73
2023/01/07 10:47:28;;;;;;;6.30;5.80;;;;;;;7.98;100.00;97101.13;4953849;28;20581;-72
2023/01/07 10:50:07;;;;;;;6.87;6.37;;;;;;;8.17;100.00;97088.53;5040564;28;20227;-73
2023/01/07 10:52:42;;;;;;;5.83;5.43;;;;;;;8.22;100.00;97086.22;5039890;28;20784;-73
2023/01/07 10:55:21;;;;;;;7.30;6.70;;;;;;;8.19;100.00;97091.84;5025612;28;20203;-73
2023/01/07 10:57:49;;;;;;;6.80;6.30;;;;;;;8.18;100.00;97092.81;4986997;28;20856;-72
2023/01/07 11:00:17;;;;;;;6.70;6.20;;;;;;;8.11;100.00;97074.19;5037700;28;20852;-73
2023/01/07 11:02:50;;;;;;;6.97;6.50;;;;;;;8.05;100.00;97067.78;5034800;28;20650;-74
2023/01/07 11:05:19;;;;;;;7.53;6.93;;;;;;;8.37;100.00;97073.13;5045764;28;20711;-70
2023/01/07 11:07:51;;;;;;;6.87;6.40;;;;;;;9.07;100.00;97062.63;5042884;28;20319;-74
2023/01/07 11:10:20;;;;;;;5.07;4.67;;;;;;;8.77;100.00;97054.56;5034642;28;20230;-74
2023/01/07 11:12:51;;;;;;;4.87;4.57;;;;;;;8.91;98.29;97045.06;4991720;28;20219;-72
2023/01/07 11:15:22;;;;;;;6.83;6.33;;;;;;;8.79;96.49;97045.50;5049271;28;20207;-72
2023/01/07 11:17:53;;;;;;;4.10;3.90;;;;;;;8.58;93.54;97029.44;5041663;28;20204;-73
2023/01/07 11:20:42;;;;;;;3.90;3.70;;;;;;;8.95;92.45;97028.69;5047336;28;20618;-71
2023/01/07 11:23:32;;;;;;;2.60;2.50;;;;;;;8.61;88.79;97027.28;5043048;28;20199;-72
2023/01/07 11:26:15;;;;;;;3.17;2.87;;;;;;;8.69;88.32;97016.66;5030368;28;20208;-73
2023/01/07 11:28:52;;;;;;;3.20;3.00;;;;;;;8.64;87.60;97007.63;5017485;28;20253;-71
2023/01/07 11:31:20;;;;;;;2.87;2.77;;;;;;;8.48;87.58;97011.16;5043584;28;20686;-73
2023/01/07 11:33:49;;;;;;;2.93;2.80;;;;;;;8.31;88.26;96998.06;5046319;28;20199;-75
2023/01/07 11:36:40;;;;;;;3.17;2.97;;;;;;;8.30;88.05;96987.66;5044717;28;20211;-75